createdAt,value
2023-05-09T00:00:25.242Z,99312.52
2023-05-09T00:02:51.833Z,99312.70
2023-05-09T00:05:18.294Z,99307.40
2023-05-09T00:07:44.726Z,99305.36
2023-05-09T00:10:11.255Z,99303.13
2023-05-09T00:12:38.019Z,99301.25
2023-05-09T00:15:05.481Z,99300.74
2023-05-09T00:17:32.047Z,99295.27
2023-05-09T00:19:58.774Z,99293.23
2023-05-09T00:22:25.177Z,99290.48
2023-05-09T00:24:52.141Z,99287.77
2023-05-09T00:27:19.166Z,99285.89
2023-05-09T00:29:45.639Z,99287.23
2023-05-09T00:32:12.453Z,99283.64
2023-05-09T00:34:39.116Z,99280.08
2023-05-09T00:37:05.566Z,99282.30
2023-05-09T00:39:32.122Z,99279.89
2023-05-09T00:41:58.669Z,99284.52
2023-05-09T00:44:25.134Z,99285.02
2023-05-09T00:46:51.675Z,99276.66
2023-05-09T00:49:18.121Z,99272.90
2023-05-09T00:51:44.821Z,99270.00
2023-05-09T00:54:11.363Z,99269.81
2023-05-09T00:56:37.979Z,99272.05
2023-05-09T00:59:04.526Z,99272.39
2023-05-09T01:01:31.033Z,99267.59
2023-05-09T01:03:58.338Z,99265.88
2023-05-09T01:06:38.857Z,99267.60
2023-05-09T01:09:14.381Z,99265.54
2023-05-09T01:12:21.694Z,99266.91
2023-05-09T01:14:51.217Z,99268.45
2023-05-09T01:17:35.130Z,99269.48
2023-05-09T01:20:04.971Z,99269.47
2023-05-09T01:22:34.069Z,99272.70
2023-05-09T01:25:25.363Z,99271.16
2023-05-09T01:28:13.236Z,99263.80
2023-05-09T01:30:42.441Z,99259.36
2023-05-09T01:33:10.755Z,99255.27
2023-05-09T01:35:39.137Z,99252.89
2023-05-09T01:38:17.451Z,99255.80
2023-05-09T01:40:48.880Z,99252.39
2023-05-09T01:43:19.433Z,99248.13
2023-05-09T01:45:47.620Z,99247.63
2023-05-09T01:48:15.608Z,99247.79
2023-05-09T01:50:44.410Z,99248.31
2023-05-09T01:53:11.606Z,99248.30
2023-05-09T01:55:40.679Z,99254.29
2023-05-09T01:58:08.628Z,99254.11
2023-05-09T02:00:36.664Z,99253.77
2023-05-09T02:03:04.831Z,99245.06
2023-05-09T02:05:32.445Z,99248.64
2023-05-09T02:07:59.495Z,99244.02
2023-05-09T02:10:27.962Z,99238.23
2023-05-09T02:12:55.594Z,99238.23
2023-05-09T02:15:22.850Z,99239.58
2023-05-09T02:17:49.403Z,99240.95
2023-05-09T02:20:15.877Z,99237.88
2023-05-09T02:22:44.249Z,99237.36
2023-05-09T02:25:12.511Z,99236.51
2023-05-09T02:27:40.305Z,99234.45
2023-05-09T02:30:11.311Z,99232.74
2023-05-09T02:32:39.974Z,99234.11
2023-05-09T02:35:08.739Z,99231.90
2023-05-09T02:37:36.835Z,99232.92
2023-05-09T02:40:05.365Z,99233.77
2023-05-09T02:42:32.118Z,99232.05
2023-05-09T02:44:58.558Z,99231.21
2023-05-09T02:47:25.031Z,99230.69
2023-05-09T02:49:51.695Z,99227.45
2023-05-09T02:52:18.300Z,99230.66
2023-05-09T02:54:45.262Z,99228.98
2023-05-09T02:57:11.811Z,99227.44
2023-05-09T02:59:38.562Z,99229.48
2023-05-09T03:02:05.084Z,99225.55
2023-05-09T03:04:31.649Z,99231.01
2023-05-09T03:06:58.088Z,99228.61
2023-05-09T03:09:24.511Z,99228.10
2023-05-09T03:11:51.369Z,99232.54
2023-05-09T03:14:17.951Z,99229.13
2023-05-09T03:16:44.366Z,99229.98
2023-05-09T03:19:11.090Z,99228.09
2023-05-09T03:21:37.508Z,99234.25
2023-05-09T03:24:04.358Z,99234.59
2023-05-09T03:26:31.074Z,99232.71
2023-05-09T03:28:57.647Z,99235.61
2023-05-09T03:31:24.101Z,99239.89
2023-05-09T03:33:50.690Z,99238.35
2023-05-09T03:36:17.238Z,99239.38
2023-05-09T03:38:43.705Z,99243.15
2023-05-09T03:41:10.552Z,99246.06
2023-05-09T03:43:37.088Z,99247.44
2023-05-09T03:46:03.504Z,99245.74
2023-05-09T03:48:30.015Z,99247.27
2023-05-09T03:50:56.586Z,99248.95
2023-05-09T03:53:23.480Z,99247.86
2023-05-09T03:55:50.451Z,99247.25
2023-05-09T03:58:16.897Z,99245.55
2023-05-09T04:00:43.412Z,99242.25
2023-05-09T04:03:10.121Z,99241.48
2023-05-09T04:05:37.141Z,99241.58
2023-05-09T04:08:04.640Z,99237.00
2023-05-09T04:10:31.542Z,99236.17
2023-05-09T04:12:58.204Z,99234.09
2023-05-09T04:15:24.817Z,99233.42
2023-05-09T04:17:51.413Z,99231.17
2023-05-09T04:20:17.980Z,99230.06
2023-05-09T04:22:46.693Z,99232.91
2023-05-09T04:25:13.798Z,99238.17
2023-05-09T04:27:40.493Z,99231.55
2023-05-09T04:30:07.826Z,99228.95
2023-05-09T04:32:34.315Z,99230.39
2023-05-09T04:35:00.801Z,99229.40
2023-05-09T04:37:27.232Z,99224.61
2023-05-09T04:39:53.699Z,99226.35
2023-05-09T04:42:20.097Z,99224.02
2023-05-09T04:44:46.833Z,99221.81
2023-05-09T04:47:13.296Z,99219.80
2023-05-09T04:49:40.210Z,99222.77
2023-05-09T04:52:06.603Z,99225.60
2023-05-09T04:54:33.118Z,99229.80
2023-05-09T04:57:09.979Z,99229.61
2023-05-09T04:59:40.899Z,99225.84
2023-05-09T05:02:07.377Z,99227.96
2023-05-09T05:04:34.064Z,99229.38
2023-05-09T05:07:00.647Z,99234.76
2023-05-09T05:09:27.161Z,99233.65
2023-05-09T05:12:00.782Z,99232.19
2023-05-09T05:14:29.511Z,99231.47
2023-05-09T05:16:55.956Z,99229.35
2023-05-09T05:19:22.480Z,99233.45
2023-05-09T05:21:49.177Z,99232.13
2023-05-09T05:24:15.645Z,99228.33
2023-05-09T05:26:42.246Z,99228.45
2023-05-09T05:29:08.697Z,99221.67
2023-05-09T05:31:35.309Z,99220.25
2023-05-09T05:34:01.888Z,99217.73
2023-05-09T05:36:28.329Z,99216.56
2023-05-09T05:38:54.747Z,99212.89
2023-05-09T05:41:21.182Z,99209.13
2023-05-09T05:43:47.660Z,99208.72
2023-05-09T05:46:14.257Z,99208.80
2023-05-09T05:48:40.851Z,99201.20
2023-05-09T05:51:07.650Z,99199.23
2023-05-09T05:53:34.306Z,99195.67
2023-05-09T05:56:00.777Z,99195.37
2023-05-09T05:58:27.484Z,99193.55
2023-05-09T06:00:53.962Z,99194.66
2023-05-09T06:03:20.474Z,99192.29
2023-05-09T06:05:47.754Z,99189.24
2023-05-09T06:08:14.401Z,99189.66
2023-05-09T06:10:40.949Z,99186.94
2023-05-09T06:13:07.453Z,99181.37
2023-05-09T06:15:33.961Z,99179.27
2023-05-09T06:18:00.510Z,99170.62
2023-05-09T06:20:27.140Z,99171.54
2023-05-09T06:22:53.641Z,99165.39
2023-05-09T06:25:23.544Z,99163.16
2023-05-09T06:27:50.228Z,99157.39
2023-05-09T06:30:25.641Z,99150.21
2023-05-09T06:32:54.472Z,99147.05
2023-05-09T06:35:21.363Z,99146.17
2023-05-09T06:37:48.883Z,99142.49
2023-05-09T06:40:16.520Z,99142.29
2023-05-09T06:42:43.220Z,99141.31
2023-05-09T06:45:10.447Z,99132.83
2023-05-09T06:47:37.055Z,99131.98
2023-05-09T06:50:03.937Z,99126.15
2023-05-09T06:52:30.587Z,99124.02
2023-05-09T06:54:57.185Z,99119.14
2023-05-09T06:57:23.949Z,99112.02
2023-05-09T06:59:50.431Z,99110.28
2023-05-09T07:02:17.026Z,99106.86
2023-05-09T07:04:43.448Z,99104.16
2023-05-09T07:07:09.922Z,99109.27
2023-05-09T07:09:36.424Z,99111.91
2023-05-09T07:12:02.963Z,99107.27
2023-05-09T07:14:29.498Z,99100.95
2023-05-09T07:17:05.199Z,99107.87
2023-05-09T07:19:40.781Z,99105.98
2023-05-09T07:22:07.346Z,99102.09
2023-05-09T07:24:33.791Z,99104.16
2023-05-09T07:27:03.271Z,99101.89
2023-05-09T07:29:29.764Z,99101.36
2023-05-09T07:31:56.737Z,99105.30
2023-05-09T07:34:23.256Z,99098.80
2023-05-09T07:36:49.731Z,99097.14
2023-05-09T07:39:16.225Z,99096.80
2023-05-09T07:41:43.236Z,99096.12
2023-05-09T07:44:10.014Z,99094.67
2023-05-09T07:46:37.214Z,99089.98
2023-05-09T07:49:04.077Z,99094.04
2023-05-09T07:51:30.531Z,99092.55
2023-05-09T07:53:56.925Z,99091.88
2023-05-09T07:56:23.578Z,99091.67
2023-05-09T07:58:50.088Z,99089.02
2023-05-09T08:01:16.900Z,99084.40
2023-05-09T08:03:43.394Z,99080.84
2023-05-09T08:06:09.948Z,99080.82
2023-05-09T08:08:38.829Z,99077.17
2023-05-09T08:11:05.588Z,99073.58
2023-05-09T08:13:32.218Z,99073.31
2023-05-09T08:15:59.017Z,99069.85
2023-05-09T08:18:25.492Z,99068.40
2023-05-09T08:20:52.068Z,99067.83
2023-05-09T08:23:18.613Z,99065.72
2023-05-09T08:25:45.078Z,99065.64
2023-05-09T08:28:11.542Z,99066.62
2023-05-09T08:30:38.072Z,99064.78
2023-05-09T08:33:04.624Z,99063.47
2023-05-09T08:35:31.100Z,99062.33
2023-05-09T08:37:57.519Z,99062.47
2023-05-09T08:40:24.017Z,99057.91
2023-05-09T08:42:51.222Z,99064.46
2023-05-09T08:45:25.532Z,99062.48
2023-05-09T08:47:53.292Z,99056.62
2023-05-09T08:50:21.371Z,99059.17
2023-05-09T08:52:48.168Z,99065.17
2023-05-09T08:55:15.225Z,99059.72
2023-05-09T08:57:41.969Z,99054.36
2023-05-09T09:00:09.727Z,99049.86
2023-05-09T09:02:37.253Z,99049.30
2023-05-09T09:05:04.194Z,99041.67
2023-05-09T09:07:33.887Z,99041.30
2023-05-09T09:10:03.206Z,99039.76
2023-05-09T09:12:31.279Z,99036.56
2023-05-09T09:15:07.374Z,99032.69
2023-05-09T09:17:40.794Z,99033.88
2023-05-09T09:20:11.254Z,99034.08
2023-05-09T09:22:40.870Z,99029.46
2023-05-09T09:25:07.493Z,99030.21
2023-05-09T09:27:34.027Z,99032.19
2023-05-09T09:30:08.090Z,99033.55
2023-05-09T09:32:35.936Z,99028.88
2023-05-09T09:35:10.661Z,99026.84
2023-05-09T09:37:39.524Z,99025.01
2023-05-09T09:40:10.521Z,99019.78
2023-05-09T09:42:41.614Z,99022.31
2023-05-09T09:45:16.944Z,99018.14
2023-05-09T09:47:45.421Z,99018.71
2023-05-09T09:50:14.513Z,99020.94
2023-05-09T09:52:42.998Z,99022.64
2023-05-09T09:55:09.626Z,99020.33
2023-05-09T09:57:37.511Z,99017.45
2023-05-09T10:00:06.085Z,99014.52
2023-05-09T10:02:32.988Z,99011.54
2023-05-09T10:05:09.069Z,99013.06
2023-05-09T10:07:35.837Z,99007.00
2023-05-09T10:10:03.139Z,99012.25
2023-05-09T10:12:29.600Z,99013.27
2023-05-09T10:14:56.499Z,99016.52
2023-05-09T10:17:23.864Z,99015.13
2023-05-09T10:19:51.334Z,99012.54
2023-05-09T10:22:18.622Z,99008.66
2023-05-09T10:24:57.566Z,99007.02
2023-05-09T10:27:28.715Z,99003.92
2023-05-09T10:30:08.656Z,99000.36
2023-05-09T10:32:58.537Z,98999.02
2023-05-09T10:35:29.894Z,99001.27
2023-05-09T10:37:56.730Z,99002.25
2023-05-09T10:40:23.386Z,99005.95
2023-05-09T10:42:50.215Z,99006.35
2023-05-09T10:45:16.947Z,99006.84
2023-05-09T10:47:44.455Z,99004.33
2023-05-09T10:50:12.597Z,99001.55
2023-05-09T10:53:04.064Z,98999.34
2023-05-09T10:55:57.546Z,98994.09
2023-05-09T10:58:31.983Z,98991.27
2023-05-09T11:01:01.129Z,98987.16
2023-05-09T11:03:29.147Z,98986.30
2023-05-09T11:05:57.642Z,98984.00
2023-05-09T11:08:31.324Z,98981.21
2023-05-09T11:11:04.141Z,98980.11
2023-05-09T11:13:32.556Z,98976.10
2023-05-09T11:16:01.835Z,98971.03
2023-05-09T11:18:29.220Z,98974.05
2023-05-09T11:20:56.746Z,98965.36
2023-05-09T11:23:29.850Z,98965.81
2023-05-09T11:28:34.127Z,98960.42
2023-05-09T11:31:17.977Z,98961.85
2023-05-09T11:33:48.862Z,98966.23
2023-05-09T11:36:27.598Z,98964.35
2023-05-09T11:39:07.915Z,98964.61
2023-05-09T11:41:45.914Z,98959.52
2023-05-09T11:44:16.842Z,98956.85
2023-05-09T11:46:44.252Z,98957.83
2023-05-09T11:49:11.996Z,98947.05
2023-05-09T11:51:39.088Z,98943.06
2023-05-09T11:54:06.941Z,98941.86
2023-05-09T11:56:38.584Z,98943.65
2023-05-09T11:59:05.499Z,98947.63
2023-05-09T12:01:32.054Z,98943.98
2023-05-09T12:03:59.014Z,98943.26
2023-05-09T12:06:25.832Z,98940.58
2023-05-09T12:08:54.811Z,98935.94
2023-05-09T12:11:21.509Z,98935.14
2023-05-09T12:13:49.430Z,98930.61
2023-05-09T12:16:17.282Z,98929.39
2023-05-09T12:18:45.392Z,98926.27
2023-05-09T12:21:11.869Z,98929.62
2023-05-09T12:23:38.314Z,98928.46
2023-05-09T12:26:05.026Z,98925.34
2023-05-09T12:28:31.642Z,98922.19
2023-05-09T12:30:59.064Z,98919.55
2023-05-09T12:33:26.482Z,98915.91
2023-05-09T12:36:03.929Z,98906.38
2023-05-09T12:38:30.646Z,98908.20
2023-05-09T12:41:22.419Z,98909.42
2023-05-09T12:43:58.320Z,98905.67
2023-05-09T12:46:25.003Z,98900.11
2023-05-09T12:48:52.056Z,98894.23
2023-05-09T12:51:20.414Z,98891.75
2023-05-09T12:53:47.165Z,98889.31
2023-05-09T12:56:16.621Z,98887.85
2023-05-09T12:58:54.653Z,98885.20
2023-05-09T13:01:27.029Z,98877.16
2023-05-09T13:04:01.710Z,98866.83
2023-05-09T13:06:28.174Z,98867.77
2023-05-09T13:09:12.901Z,98869.55
2023-05-09T13:11:39.413Z,98863.72
2023-05-09T13:14:06.222Z,98866.17
2023-05-09T13:16:32.795Z,98869.48
2023-05-09T13:18:59.416Z,98864.42
2023-05-09T13:21:26.093Z,98862.16
2023-05-09T13:23:52.658Z,98857.30
2023-05-09T13:26:19.291Z,98857.39
2023-05-09T13:28:45.736Z,98859.14
2023-05-09T13:31:12.262Z,98853.89
2023-05-09T13:33:38.824Z,98852.30
2023-05-09T13:36:05.614Z,98851.91
2023-05-09T13:38:32.168Z,98856.14
2023-05-09T13:40:59.013Z,98849.13
2023-05-09T13:43:26.497Z,98850.65
2023-05-09T13:45:53.089Z,98848.62
2023-05-09T13:48:19.662Z,98849.45
2023-05-09T13:50:46.605Z,98846.35
2023-05-09T13:53:13.367Z,98841.42
2023-05-09T13:55:39.789Z,98838.98
2023-05-09T13:58:06.255Z,98835.84
2023-05-09T14:00:33.422Z,98838.27
2023-05-09T14:02:59.951Z,98829.98
2023-05-09T14:05:26.769Z,98823.36
2023-05-09T14:07:53.475Z,98823.95
2023-05-09T14:10:20.032Z,98817.48
2023-05-09T14:12:46.681Z,98809.91
2023-05-09T14:15:13.554Z,98816.45
2023-05-09T14:17:39.995Z,98817.27
2023-05-09T14:20:07.245Z,98819.39
2023-05-09T14:22:33.795Z,98817.97
2023-05-09T14:25:00.199Z,98821.50
2023-05-09T14:27:26.663Z,98821.08
2023-05-09T14:29:53.129Z,98819.58
2023-05-09T14:32:19.607Z,98820.37
2023-05-09T14:34:46.188Z,98820.48
2023-05-09T14:37:15.607Z,98819.62
2023-05-09T14:39:43.758Z,98818.02
2023-05-09T14:42:10.418Z,98815.85
2023-05-09T14:44:43.206Z,98806.66
2023-05-09T14:47:09.968Z,98803.59
2023-05-09T14:49:37.321Z,98797.49
2023-05-09T14:52:03.883Z,98794.61
2023-05-09T14:54:30.346Z,98793.52
2023-05-09T14:56:56.780Z,98794.02
2023-05-09T14:59:23.349Z,98799.95
2023-05-09T15:01:49.758Z,98797.21
2023-05-09T15:04:16.406Z,98800.73
2023-05-09T15:06:43.062Z,98795.95
2023-05-09T15:09:09.485Z,98792.42
2023-05-09T15:11:46.760Z,98790.00
2023-05-09T15:14:14.726Z,98784.55
2023-05-09T15:16:41.516Z,98785.80
2023-05-09T15:19:08.430Z,98785.61
2023-05-09T15:21:34.996Z,98778.98
2023-05-09T15:24:01.631Z,98781.90
2023-05-09T15:26:28.060Z,98779.60
2023-05-09T15:28:54.630Z,98778.88
2023-05-09T15:31:21.065Z,98773.05
2023-05-09T15:33:48.187Z,98765.23
2023-05-09T15:36:14.665Z,98757.02
2023-05-09T15:38:41.079Z,98753.17
2023-05-09T15:41:07.538Z,98749.52
2023-05-09T15:43:33.980Z,98739.70
2023-05-09T15:46:00.766Z,98742.13
2023-05-09T15:48:27.319Z,98740.84
2023-05-09T15:50:53.763Z,98743.02
2023-05-09T15:53:20.253Z,98744.15
2023-05-09T15:55:46.736Z,98741.89
2023-05-09T15:58:13.493Z,98743.98
2023-05-09T16:00:39.923Z,98740.84
2023-05-09T16:03:06.379Z,98742.71
2023-05-09T16:05:33.143Z,98741.86
2023-05-09T16:07:59.859Z,98742.30
2023-05-09T16:10:26.380Z,98743.36
2023-05-09T16:12:52.920Z,98740.79
2023-05-09T16:15:19.532Z,98740.48
2023-05-09T16:17:45.968Z,98736.44
2023-05-09T16:20:13.291Z,98733.08
2023-05-09T16:22:40.632Z,98731.41
2023-05-09T16:25:07.675Z,98727.52
2023-05-09T16:27:34.351Z,98723.41
2023-05-09T16:30:01.135Z,98721.79
2023-05-09T16:32:27.783Z,98724.88
2023-05-09T16:34:54.234Z,98726.06
2023-05-09T16:37:20.913Z,98721.27
2023-05-09T16:39:47.366Z,98721.42
2023-05-09T16:42:14.145Z,98719.84
2023-05-09T16:44:40.563Z,98714.39
2023-05-09T16:47:07.264Z,98714.27
2023-05-09T16:49:33.890Z,98713.95
2023-05-09T16:52:00.319Z,98712.48
2023-05-09T16:54:26.902Z,98707.20
2023-05-09T16:56:53.432Z,98702.06
2023-05-09T16:59:19.877Z,98700.63
2023-05-09T17:01:46.523Z,98695.18
2023-05-09T17:04:13.398Z,98695.52
2023-05-09T17:06:39.937Z,98699.18
2023-05-09T17:09:06.403Z,98695.08
2023-05-09T17:11:32.922Z,98696.52
2023-05-09T17:14:02.386Z,98696.70
2023-05-09T17:16:29.353Z,98696.52
2023-05-09T17:18:56.083Z,98696.66
2023-05-09T17:21:22.472Z,98697.30
2023-05-09T17:23:48.963Z,98695.55
2023-05-09T17:26:15.644Z,98693.86
2023-05-09T17:28:42.415Z,98693.91
2023-05-09T17:31:08.894Z,98693.88
2023-05-09T17:33:35.505Z,98693.45
2023-05-09T17:36:01.945Z,98691.70
2023-05-09T17:38:28.502Z,98688.70
2023-05-09T17:40:55.049Z,98688.73
2023-05-09T17:43:21.742Z,98691.84
2023-05-09T17:45:48.216Z,98690.10
2023-05-09T17:48:14.751Z,98692.35
2023-05-09T17:50:41.267Z,98694.35
2023-05-09T17:53:07.896Z,98698.92
2023-05-09T17:55:34.341Z,98701.08
2023-05-09T17:58:00.897Z,98702.02
2023-05-09T18:00:27.393Z,98701.54
2023-05-09T18:02:54.057Z,98700.38
2023-05-09T18:05:20.630Z,98698.77
2023-05-09T18:07:47.122Z,98694.79
2023-05-09T18:10:13.898Z,98698.44
2023-05-09T18:12:40.590Z,98701.16
2023-05-09T18:15:07.890Z,98695.25
2023-05-09T18:17:34.338Z,98700.27
2023-05-09T18:20:00.767Z,98702.95
2023-05-09T18:22:27.165Z,98702.52
2023-05-09T18:24:53.616Z,98704.79
2023-05-09T18:27:20.041Z,98705.88
2023-05-09T18:29:46.872Z,98711.23
2023-05-09T18:32:13.638Z,98720.48
2023-05-09T18:34:41.117Z,98719.35
2023-05-09T18:37:07.594Z,98721.63
2023-05-09T18:39:34.036Z,98720.71
2023-05-09T18:42:00.435Z,98718.05
2023-05-09T18:44:26.840Z,98721.83
2023-05-09T18:46:53.371Z,98721.33
2023-05-09T18:49:19.990Z,98722.44
2023-05-09T18:51:46.901Z,98723.48
2023-05-09T18:54:13.417Z,98722.10
2023-05-09T18:56:39.862Z,98722.78
2023-05-09T18:59:06.263Z,98727.17
2023-05-09T19:01:32.773Z,98724.07
2023-05-09T19:03:59.370Z,98726.11
2023-05-09T19:06:25.803Z,98727.88
2023-05-09T19:08:52.236Z,98726.20
2023-05-09T19:11:19.022Z,98726.25
2023-05-09T19:13:45.614Z,98725.32
2023-05-09T19:16:12.321Z,98721.92
2023-05-09T19:18:38.874Z,98719.39
2023-05-09T19:21:05.352Z,98720.91
2023-05-09T19:23:31.973Z,98719.13
2023-05-09T19:25:58.625Z,98720.55
2023-05-09T19:28:25.125Z,98718.17
2023-05-09T19:30:51.779Z,98714.86
2023-05-09T19:33:18.216Z,98714.79
2023-05-09T19:35:45.181Z,98708.31
2023-05-09T19:38:11.944Z,98710.71
2023-05-09T19:40:39.506Z,98711.33
2023-05-09T19:43:05.947Z,98713.83
2023-05-09T19:45:32.466Z,98715.42
2023-05-09T19:47:59.528Z,98712.52
2023-05-09T19:50:26.201Z,98707.83
2023-05-09T19:52:52.727Z,98709.44
2023-05-09T19:55:19.201Z,98707.98
2023-05-09T19:57:45.726Z,98703.21
2023-05-09T20:00:13.034Z,98702.91
2023-05-09T20:02:39.803Z,98701.61
2023-05-09T20:05:06.922Z,98699.65
2023-05-09T20:07:33.464Z,98698.80
2023-05-09T20:10:00.014Z,98695.15
2023-05-09T20:12:27.967Z,98697.19
2023-05-09T20:14:56.940Z,98698.04
2023-05-09T20:17:23.879Z,98698.50
2023-05-09T20:19:50.506Z,98697.23
2023-05-09T20:22:17.168Z,98702.55
2023-05-09T20:24:44.027Z,98701.58
2023-05-09T20:27:10.612Z,98703.52
2023-05-09T20:29:37.157Z,98703.94
2023-05-09T20:32:03.798Z,98704.90
2023-05-09T20:34:30.545Z,98708.67
2023-05-09T20:36:57.291Z,98701.55
2023-05-09T20:39:23.857Z,98699.83
2023-05-09T20:41:50.708Z,98704.32
2023-05-09T20:44:18.130Z,98698.95
2023-05-09T20:46:45.611Z,98695.27
2023-05-09T20:49:12.176Z,98695.11
2023-05-09T20:51:39.011Z,98697.69
2023-05-09T20:54:05.599Z,98699.36
2023-05-09T20:56:33.587Z,98699.05
2023-05-09T20:59:00.107Z,98697.88
2023-05-09T21:01:27.104Z,98697.91
2023-05-09T21:03:53.624Z,98696.39
2023-05-09T21:06:20.481Z,98697.52
2023-05-09T21:08:47.042Z,98692.96
2023-05-09T21:11:13.790Z,98694.14
2023-05-09T21:13:40.483Z,98693.69
2023-05-09T21:16:06.991Z,98691.79
2023-05-09T21:18:33.600Z,98690.58
2023-05-09T21:21:01.690Z,98694.70
2023-05-09T21:23:28.782Z,98694.10
2023-05-09T21:25:55.308Z,98691.83
2023-05-09T21:28:21.835Z,98696.02
2023-05-09T21:30:55.006Z,98692.07
2023-05-09T21:33:21.661Z,98689.80
2023-05-09T21:35:48.134Z,98689.44
2023-05-09T21:38:14.586Z,98684.20
2023-05-09T21:40:41.201Z,98684.83
2023-05-09T21:43:07.994Z,98680.29
2023-05-09T21:45:34.484Z,98678.86
2023-05-09T21:48:01.167Z,98680.33
2023-05-09T21:50:27.806Z,98682.83
2023-05-09T21:52:54.258Z,98682.66
2023-05-09T21:55:20.811Z,98684.11
2023-05-09T21:57:47.368Z,98681.68
2023-05-09T22:00:15.410Z,98676.88
2023-05-09T22:02:42.246Z,98677.98
2023-05-09T22:05:09.868Z,98676.59
2023-05-09T22:07:36.643Z,98681.42
2023-05-09T22:10:03.934Z,98680.33
2023-05-09T22:12:30.749Z,98678.17
2023-05-09T22:14:57.291Z,98676.13
2023-05-09T22:17:24.301Z,98679.96
2023-05-09T22:19:50.918Z,98675.45
2023-05-09T22:22:17.596Z,98677.05
2023-05-09T22:24:44.127Z,98675.73
2023-05-09T22:27:11.400Z,98676.56
2023-05-09T22:29:37.944Z,98670.15
2023-05-09T22:32:04.950Z,98670.72
2023-05-09T22:34:31.483Z,98667.29
2023-05-09T22:36:58.378Z,98667.45
2023-05-09T22:39:24.950Z,98667.39
2023-05-09T22:41:51.398Z,98660.13
2023-05-09T22:44:17.952Z,98657.83
2023-05-09T22:46:44.799Z,98657.08
2023-05-09T22:49:11.249Z,98655.70
2023-05-09T22:51:37.800Z,98658.69
2023-05-09T22:54:04.528Z,98658.14
2023-05-09T22:56:31.031Z,98657.96
2023-05-09T22:58:57.566Z,98657.08
2023-05-09T23:01:24.402Z,98659.14
2023-05-09T23:03:50.944Z,98654.95
2023-05-09T23:06:17.419Z,98655.36
2023-05-09T23:08:43.954Z,98656.44
2023-05-09T23:11:10.402Z,98655.64
2023-05-09T23:13:36.850Z,98652.60
2023-05-09T23:16:03.900Z,98651.35
2023-05-09T23:18:30.599Z,98647.80
2023-05-09T23:20:57.016Z,98648.16
2023-05-09T23:23:23.774Z,98646.27
2023-05-09T23:25:50.232Z,98650.15
2023-05-09T23:28:16.767Z,98645.58
2023-05-09T23:30:43.233Z,98650.05
2023-05-09T23:33:09.649Z,98646.70
2023-05-09T23:35:36.141Z,98643.12
2023-05-09T23:38:02.695Z,98643.34
2023-05-09T23:40:29.568Z,98641.77
2023-05-09T23:42:56.023Z,98641.63
2023-05-09T23:45:22.856Z,98636.52
2023-05-09T23:47:49.400Z,98638.23
2023-05-09T23:50:16.193Z,98632.55
2023-05-09T23:52:43.140Z,98631.73
2023-05-09T23:55:09.633Z,98635.25
2023-05-09T23:57:36.110Z,98636.01
